sensor_id;sensor_type;location;lat;lon;timestamp;P1;durP1;ratioP1;P2;durP2;ratioP2
6785;SDS011;3430;51.192;6.048;2022-10-23T00:00:07;4.53;;;2.40;;
6785;SDS011;3430;51.192;6.048;2022-10-23T00:02:33;2.70;;;2.50;;
6785;SDS011;3430;51.192;6.048;2022-10-23T00:04:58;2.50;;;2.30;;
6785;SDS011;3430;51.192;6.048;2022-10-23T00:07:23;2.57;;;2.37;;
6785;SDS011;3430;51.192;6.048;2022-10-23T00:09:49;2.93;;;2.33;;
6785;SDS011;3430;51.192;6.048;2022-10-23T00:12:14;3.70;;;2.40;;
6785;SDS011;3430;51.192;6.048;2022-10-23T00:14:39;3.33;;;2.50;;
6785;SDS011;3430;51.192;6.048;2022-10-23T00:17:05;5.00;;;2.57;;
6785;SDS011;3430;51.192;6.048;2022-10-23T00:19:30;2.57;;;2.23;;
6785;SDS011;3430;51.192;6.048;2022-10-23T00:21:55;2.80;;;2.47;;
6785;SDS011;3430;51.192;6.048;2022-10-23T00:24:21;4.17;;;2.43;;
6785;SDS011;3430;51.192;6.048;2022-10-23T00:26:47;4.37;;;2.60;;
6785;SDS011;3430;51.192;6.048;2022-10-23T00:29:13;2.53;;;2.33;;
6785;SDS011;3430;51.192;6.048;2022-10-23T00:31:38;3.93;;;2.50;;
6785;SDS011;3430;51.192;6.048;2022-10-23T00:34:03;3.17;;;2.30;;
6785;SDS011;3430;51.192;6.048;2022-10-23T00:36:32;4.27;;;2.47;;
6785;SDS011;3430;51.192;6.048;2022-10-23T00:38:57;3.23;;;2.60;;
6785;SDS011;3430;51.192;6.048;2022-10-23T00:41:24;3.77;;;2.40;;
6785;SDS011;3430;51.192;6.048;2022-10-23T00:43:57;2.60;;;2.40;;
6785;SDS011;3430;51.192;6.048;2022-10-23T00:46:23;2.30;;;2.10;;
6785;SDS011;3430;51.192;6.048;2022-10-23T00:48:48;4.17;;;2.40;;
6785;SDS011;3430;51.192;6.048;2022-10-23T00:51:13;4.37;;;2.50;;
6785;SDS011;3430;51.192;6.048;2022-10-23T00:53:39;2.87;;;2.10;;
6785;SDS011;3430;51.192;6.048;2022-10-23T00:56:05;4.90;;;2.60;;
6785;SDS011;3430;51.192;6.048;2022-10-23T00:58:31;3.27;;;2.10;;
6785;SDS011;3430;51.192;6.048;2022-10-23T01:00:56;4.97;;;2.53;;
6785;SDS011;3430;51.192;6.048;2022-10-23T01:03:25;3.00;;;2.33;;
6785;SDS011;3430;51.192;6.048;2022-10-23T01:05:58;2.43;;;2.20;;
6785;SDS011;3430;51.192;6.048;2022-10-23T01:08:27;5.17;;;2.20;;
6785;SDS011;3430;51.192;6.048;2022-10-23T01:10:57;4.23;;;2.03;;
6785;SDS011;3430;51.192;6.048;2022-10-23T01:16:04;4.20;;;2.53;;
6785;SDS011;3430;51.192;6.048;2022-10-23T01:21:30;3.47;;;2.87;;
6785;SDS011;3430;51.192;6.048;2022-10-23T01:26:45;3.53;;;2.30;;
6785;SDS011;3430;51.192;6.048;2022-10-23T01:29:18;2.13;;;1.97;;
6785;SDS011;3430;51.192;6.048;2022-10-23T01:31:55;5.33;;;2.20;;
6785;SDS011;3430;51.192;6.048;2022-10-23T01:34:29;2.40;;;2.20;;
6785;SDS011;3430;51.192;6.048;2022-10-23T01:36:56;3.60;;;2.60;;
6785;SDS011;3430;51.192;6.048;2022-10-23T01:39:26;2.77;;;2.40;;
6785;SDS011;3430;51.192;6.048;2022-10-23T01:41:54;3.03;;;2.50;;
6785;SDS011;3430;51.192;6.048;2022-10-23T01:44:23;4.63;;;2.40;;
6785;SDS011;3430;51.192;6.048;2022-10-23T01:46:51;2.90;;;2.47;;
6785;SDS011;3430;51.192;6.048;2022-10-23T01:49:17;2.80;;;2.50;;
6785;SDS011;3430;51.192;6.048;2022-10-23T01:51:44;2.23;;;2.07;;
6785;SDS011;3430;51.192;6.048;2022-10-23T01:54:11;3.63;;;2.40;;
6785;SDS011;3430;51.192;6.048;2022-10-23T01:56:38;5.63;;;2.80;;
6785;SDS011;3430;51.192;6.048;2022-10-23T01:59:07;3.40;;;2.30;;
6785;SDS011;3430;51.192;6.048;2022-10-23T02:01:37;3.77;;;2.40;;
6785;SDS011;3430;51.192;6.048;2022-10-23T02:04:05;2.33;;;2.00;;
6785;SDS011;3430;51.192;6.048;2022-10-23T02:06:32;3.57;;;2.17;;
6785;SDS011;3430;51.192;6.048;2022-10-23T02:08:58;2.30;;;2.10;;
6785;SDS011;3430;51.192;6.048;2022-10-23T02:11:23;4.33;;;2.30;;
6785;SDS011;3430;51.192;6.048;2022-10-23T02:13:58;2.93;;;2.10;;
6785;SDS011;3430;51.192;6.048;2022-10-23T02:16:46;4.73;;;2.47;;
6785;SDS011;3430;51.192;6.048;2022-10-23T02:19:25;3.67;;;2.20;;
6785;SDS011;3430;51.192;6.048;2022-10-23T02:21:55;3.00;;;2.30;;
6785;SDS011;3430;51.192;6.048;2022-10-23T02:24:26;6.17;;;2.50;;
6785;SDS011;3430;51.192;6.048;2022-10-23T02:26:56;2.53;;;2.30;;
6785;SDS011;3430;51.192;6.048;2022-10-23T02:29:27;2.50;;;2.20;;
6785;SDS011;3430;51.192;6.048;2022-10-23T02:31:54;3.23;;;2.50;;
6785;SDS011;3430;51.192;6.048;2022-10-23T02:34:20;2.93;;;2.20;;
6785;SDS011;3430;51.192;6.048;2022-10-23T02:36:45;3.40;;;2.50;;
6785;SDS011;3430;51.192;6.048;2022-10-23T02:39:10;3.83;;;2.40;;
6785;SDS011;3430;51.192;6.048;2022-10-23T02:44:23;4.27;;;2.07;;
6785;SDS011;3430;51.192;6.048;2022-10-23T02:54:35;2.10;;;1.90;;
6785;SDS011;3430;51.192;6.048;2022-10-23T02:57:13;2.50;;;2.07;;
6785;SDS011;3430;51.192;6.048;2022-10-23T02:59:47;4.30;;;2.30;;
6785;SDS011;3430;51.192;6.048;2022-10-23T03:02:17;2.10;;;1.90;;
6785;SDS011;3430;51.192;6.048;2022-10-23T03:04:45;3.80;;;2.50;;
6785;SDS011;3430;51.192;6.048;2022-10-23T03:07:13;3.13;;;2.00;;
6785;SDS011;3430;51.192;6.048;2022-10-23T03:09:39;1.97;;;1.87;;
6785;SDS011;3430;51.192;6.048;2022-10-23T03:12:05;6.87;;;2.70;;
6785;SDS011;3430;51.192;6.048;2022-10-23T03:14:30;6.53;;;2.50;;
6785;SDS011;3430;51.192;6.048;2022-10-23T03:16:55;2.40;;;2.20;;
6785;SDS011;3430;51.192;6.048;2022-10-23T03:19:21;2.47;;;2.20;;
6785;SDS011;3430;51.192;6.048;2022-10-23T03:21:46;2.53;;;2.00;;
6785;SDS011;3430;51.192;6.048;2022-10-23T03:24:12;2.57;;;2.00;;
6785;SDS011;3430;51.192;6.048;2022-10-23T03:26:37;4.87;;;2.67;;
6785;SDS011;3430;51.192;6.048;2022-10-23T03:29:02;2.73;;;2.20;;
6785;SDS011;3430;51.192;6.048;2022-10-23T03:31:27;1.97;;;1.87;;
6785;SDS011;3430;51.192;6.048;2022-10-23T03:33:53;2.77;;;2.57;;
6785;SDS011;3430;51.192;6.048;2022-10-23T03:36:18;4.17;;;2.50;;
6785;SDS011;3430;51.192;6.048;2022-10-23T03:38:43;5.13;;;2.17;;
6785;SDS011;3430;51.192;6.048;2022-10-23T03:41:08;5.17;;;2.33;;
6785;SDS011;3430;51.192;6.048;2022-10-23T03:43:34;3.73;;;2.50;;
6785;SDS011;3430;51.192;6.048;2022-10-23T03:45:59;3.13;;;2.70;;
6785;SDS011;3430;51.192;6.048;2022-10-23T03:48:26;4.77;;;2.40;;
6785;SDS011;3430;51.192;6.048;2022-10-23T03:50:51;2.27;;;2.07;;
6785;SDS011;3430;51.192;6.048;2022-10-23T03:53:16;3.33;;;2.40;;
6785;SDS011;3430;51.192;6.048;2022-10-23T03:55:42;3.40;;;2.30;;
6785;SDS011;3430;51.192;6.048;2022-10-23T03:58:08;2.40;;;2.20;;
6785;SDS011;3430;51.192;6.048;2022-10-23T04:00:33;2.63;;;2.30;;
6785;SDS011;3430;51.192;6.048;2022-10-23T04:02:58;8.43;;;2.20;;
6785;SDS011;3430;51.192;6.048;2022-10-23T04:05:23;2.20;;;1.97;;
6785;SDS011;3430;51.192;6.048;2022-10-23T04:07:49;1.90;;;1.70;;
6785;SDS011;3430;51.192;6.048;2022-10-23T04:10:14;2.60;;;2.10;;
6785;SDS011;3430;51.192;6.048;2022-10-23T04:12:39;2.37;;;2.13;;
6785;SDS011;3430;51.192;6.048;2022-10-23T04:15:04;2.83;;;2.30;;
6785;SDS011;3430;51.192;6.048;2022-10-23T04:17:30;2.23;;;2.03;;
6785;SDS011;3430;51.192;6.048;2022-10-23T04:19:55;3.03;;;2.17;;
6785;SDS011;3430;51.192;6.048;2022-10-23T04:22:21;3.67;;;2.10;;
6785;SDS011;3430;51.192;6.048;2022-10-23T04:24:46;4.10;;;2.00;;
6785;SDS011;3430;51.192;6.048;2022-10-23T04:27:12;6.80;;;2.37;;
6785;SDS011;3430;51.192;6.048;2022-10-23T04:29:37;2.17;;;1.93;;
6785;SDS011;3430;51.192;6.048;2022-10-23T04:32:02;2.43;;;2.10;;
6785;SDS011;3430;51.192;6.048;2022-10-23T04:34:28;4.60;;;2.40;;
6785;SDS011;3430;51.192;6.048;2022-10-23T04:36:53;2.37;;;2.17;;
6785;SDS011;3430;51.192;6.048;2022-10-23T04:39:18;2.00;;;1.90;;
6785;SDS011;3430;51.192;6.048;2022-10-23T04:41:44;2.70;;;2.23;;
6785;SDS011;3430;51.192;6.048;2022-10-23T04:44:09;3.27;;;2.50;;
6785;SDS011;3430;51.192;6.048;2022-10-23T04:46:34;2.63;;;2.03;;
6785;SDS011;3430;51.192;6.048;2022-10-23T04:49:00;2.63;;;2.10;;
6785;SDS011;3430;51.192;6.048;2022-10-23T04:51:25;3.37;;;2.37;;
6785;SDS011;3430;51.192;6.048;2022-10-23T04:53:50;4.03;;;2.20;;
6785;SDS011;3430;51.192;6.048;2022-10-23T04:56:15;3.03;;;2.17;;
6785;SDS011;3430;51.192;6.048;2022-10-23T04:58:41;2.67;;;2.17;;
6785;SDS011;3430;51.192;6.048;2022-10-23T05:01:07;2.47;;;2.10;;
6785;SDS011;3430;51.192;6.048;2022-10-23T05:03:34;4.40;;;2.10;;
6785;SDS011;3430;51.192;6.048;2022-10-23T05:06:00;4.90;;;2.23;;
6785;SDS011;3430;51.192;6.048;2022-10-23T05:08:25;5.57;;;2.23;;
6785;SDS011;3430;51.192;6.048;2022-10-23T05:10:50;4.50;;;2.30;;
6785;SDS011;3430;51.192;6.048;2022-10-23T05:13:16;4.27;;;2.03;;
6785;SDS011;3430;51.192;6.048;2022-10-23T05:15:44;3.10;;;2.50;;
6785;SDS011;3430;51.192;6.048;2022-10-23T05:18:25;2.70;;;2.20;;
6785;SDS011;3430;51.192;6.048;2022-10-23T05:20:53;2.33;;;2.00;;
6785;SDS011;3430;51.192;6.048;2022-10-23T05:23:20;2.60;;;2.00;;
6785;SDS011;3430;51.192;6.048;2022-10-23T05:25:46;4.10;;;2.53;;
6785;SDS011;3430;51.192;6.048;2022-10-23T05:28:11;2.40;;;2.20;;
6785;SDS011;3430;51.192;6.048;2022-10-23T05:30:36;5.73;;;2.60;;
6785;SDS011;3430;51.192;6.048;2022-10-23T05:33:02;5.07;;;2.27;;
6785;SDS011;3430;51.192;6.048;2022-10-23T05:35:27;4.13;;;2.10;;
6785;SDS011;3430;51.192;6.048;2022-10-23T05:37:53;3.73;;;2.27;;
6785;SDS011;3430;51.192;6.048;2022-10-23T05:40:19;4.80;;;2.10;;
6785;SDS011;3430;51.192;6.048;2022-10-23T05:42:45;3.37;;;2.13;;
6785;SDS011;3430;51.192;6.048;2022-10-23T05:45:10;3.23;;;2.00;;
6785;SDS011;3430;51.192;6.048;2022-10-23T05:47:36;3.17;;;2.63;;
6785;SDS011;3430;51.192;6.048;2022-10-23T05:50:01;3.90;;;2.10;;
6785;SDS011;3430;51.192;6.048;2022-10-23T05:52:26;3.97;;;2.00;;
6785;SDS011;3430;51.192;6.048;2022-10-23T05:54:52;1.97;;;1.77;;
6785;SDS011;3430;51.192;6.048;2022-10-23T05:57:17;2.47;;;2.00;;
6785;SDS011;3430;51.192;6.048;2022-10-23T05:59:45;3.23;;;2.10;;
6785;SDS011;3430;51.192;6.048;2022-10-23T06:02:11;2.63;;;2.20;;
6785;SDS011;3430;51.192;6.048;2022-10-23T06:04:36;2.87;;;2.00;;
6785;SDS011;3430;51.192;6.048;2022-10-23T06:07:02;2.17;;;1.87;;
6785;SDS011;3430;51.192;6.048;2022-10-23T06:09:27;3.70;;;2.10;;
6785;SDS011;3430;51.192;6.048;2022-10-23T06:11:53;3.43;;;2.10;;
6785;SDS011;3430;51.192;6.048;2022-10-23T06:14:18;2.33;;;2.00;;
6785;SDS011;3430;51.192;6.048;2022-10-23T06:16:43;2.77;;;1.70;;
6785;SDS011;3430;51.192;6.048;2022-10-23T06:19:09;7.27;;;2.07;;
6785;SDS011;3430;51.192;6.048;2022-10-23T06:21:38;2.73;;;1.97;;
6785;SDS011;3430;51.192;6.048;2022-10-23T06:24:04;2.00;;;1.87;;
6785;SDS011;3430;51.192;6.048;2022-10-23T06:26:30;4.27;;;2.33;;
6785;SDS011;3430;51.192;6.048;2022-10-23T06:28:55;6.27;;;2.50;;
6785;SDS011;3430;51.192;6.048;2022-10-23T06:31:20;2.50;;;1.90;;
6785;SDS011;3430;51.192;6.048;2022-10-23T06:33:50;3.60;;;1.97;;
6785;SDS011;3430;51.192;6.048;2022-10-23T06:36:15;3.10;;;1.73;;
6785;SDS011;3430;51.192;6.048;2022-10-23T06:38:41;2.93;;;1.93;;
6785;SDS011;3430;51.192;6.048;2022-10-23T06:41:07;3.37;;;2.07;;
6785;SDS011;3430;51.192;6.048;2022-10-23T06:43:35;2.30;;;1.93;;
6785;SDS011;3430;51.192;6.048;2022-10-23T06:46:03;4.77;;;2.20;;
6785;SDS011;3430;51.192;6.048;2022-10-23T06:48:29;1.90;;;1.70;;
6785;SDS011;3430;51.192;6.048;2022-10-23T06:50:55;2.37;;;1.93;;
6785;SDS011;3430;51.192;6.048;2022-10-23T06:53:20;3.87;;;2.00;;
6785;SDS011;3430;51.192;6.048;2022-10-23T06:55:48;2.63;;;1.83;;
6785;SDS011;3430;51.192;6.048;2022-10-23T06:58:14;4.20;;;2.07;;
6785;SDS011;3430;51.192;6.048;2022-10-23T07:00:39;3.27;;;2.17;;
6785;SDS011;3430;51.192;6.048;2022-10-23T07:03:04;2.47;;;1.77;;
6785;SDS011;3430;51.192;6.048;2022-10-23T07:05:30;4.30;;;2.37;;
6785;SDS011;3430;51.192;6.048;2022-10-23T07:07:56;4.47;;;1.93;;
6785;SDS011;3430;51.192;6.048;2022-10-23T07:10:21;2.40;;;2.00;;
6785;SDS011;3430;51.192;6.048;2022-10-23T07:12:47;2.17;;;1.97;;
6785;SDS011;3430;51.192;6.048;2022-10-23T07:15:13;3.40;;;1.90;;
6785;SDS011;3430;51.192;6.048;2022-10-23T07:17:38;3.60;;;2.00;;
6785;SDS011;3430;51.192;6.048;2022-10-23T07:20:04;2.67;;;2.00;;
6785;SDS011;3430;51.192;6.048;2022-10-23T07:22:29;3.73;;;2.20;;
6785;SDS011;3430;51.192;6.048;2022-10-23T07:24:54;2.20;;;2.00;;
6785;SDS011;3430;51.192;6.048;2022-10-23T07:27:20;2.70;;;2.10;;
6785;SDS011;3430;51.192;6.048;2022-10-23T07:29:48;3.77;;;2.00;;
6785;SDS011;3430;51.192;6.048;2022-10-23T07:32:13;3.67;;;1.90;;
6785;SDS011;3430;51.192;6.048;2022-10-23T07:34:39;4.17;;;2.27;;
6785;SDS011;3430;51.192;6.048;2022-10-23T07:37:04;3.93;;;2.27;;
6785;SDS011;3430;51.192;6.048;2022-10-23T07:39:29;4.30;;;2.03;;
6785;SDS011;3430;51.192;6.048;2022-10-23T07:41:55;2.80;;;2.20;;
6785;SDS011;3430;51.192;6.048;2022-10-23T07:44:20;2.83;;;1.80;;
6785;SDS011;3430;51.192;6.048;2022-10-23T07:46:45;2.90;;;1.90;;
6785;SDS011;3430;51.192;6.048;2022-10-23T07:49:10;2.83;;;1.80;;
6785;SDS011;3430;51.192;6.048;2022-10-23T07:51:36;2.80;;;2.30;;
6785;SDS011;3430;51.192;6.048;2022-10-23T07:54:01;4.40;;;2.67;;
6785;SDS011;3430;51.192;6.048;2022-10-23T07:56:27;4.23;;;2.20;;
6785;SDS011;3430;51.192;6.048;2022-10-23T07:58:56;2.70;;;1.80;;
6785;SDS011;3430;51.192;6.048;2022-10-23T08:03:46;8.20;;;2.00;;
6785;SDS011;3430;51.192;6.048;2022-10-23T08:06:12;3.40;;;2.10;;
6785;SDS011;3430;51.192;6.048;2022-10-23T08:08:37;2.80;;;2.10;;
6785;SDS011;3430;51.192;6.048;2022-10-23T08:11:02;5.60;;;2.00;;
6785;SDS011;3430;51.192;6.048;2022-10-23T08:13:28;2.90;;;2.00;;
6785;SDS011;3430;51.192;6.048;2022-10-23T08:15:53;3.63;;;2.33;;
6785;SDS011;3430;51.192;6.048;2022-10-23T08:18:20;2.70;;;2.30;;
6785;SDS011;3430;51.192;6.048;2022-10-23T08:20:45;2.17;;;1.93;;
6785;SDS011;3430;51.192;6.048;2022-10-23T08:23:12;2.47;;;1.93;;
6785;SDS011;3430;51.192;6.048;2022-10-23T08:25:37;2.47;;;2.00;;
6785;SDS011;3430;51.192;6.048;2022-10-23T08:28:03;2.40;;;1.90;;
6785;SDS011;3430;51.192;6.048;2022-10-23T08:30:28;2.80;;;2.10;;
6785;SDS011;3430;51.192;6.048;2022-10-23T08:32:53;3.43;;;1.77;;
6785;SDS011;3430;51.192;6.048;2022-10-23T08:35:19;3.83;;;2.30;;
6785;SDS011;3430;51.192;6.048;2022-10-23T08:37:44;2.43;;;1.97;;
6785;SDS011;3430;51.192;6.048;2022-10-23T08:40:20;2.70;;;2.30;;
6785;SDS011;3430;51.192;6.048;2022-10-23T08:42:47;3.30;;;1.87;;
6785;SDS011;3430;51.192;6.048;2022-10-23T08:45:35;2.67;;;1.97;;
6785;SDS011;3430;51.192;6.048;2022-10-23T08:50:57;3.93;;;1.90;;
6785;SDS011;3430;51.192;6.048;2022-10-23T08:53:25;5.10;;;2.30;;
6785;SDS011;3430;51.192;6.048;2022-10-23T08:55:54;2.40;;;2.10;;
6785;SDS011;3430;51.192;6.048;2022-10-23T08:58:35;3.43;;;2.10;;
6785;SDS011;3430;51.192;6.048;2022-10-23T09:01:25;3.23;;;1.87;;
6785;SDS011;3430;51.192;6.048;2022-10-23T09:03:51;2.97;;;2.67;;
6785;SDS011;3430;51.192;6.048;2022-10-23T09:06:20;2.50;;;1.87;;
6785;SDS011;3430;51.192;6.048;2022-10-23T09:13:48;3.43;;;2.43;;
6785;SDS011;3430;51.192;6.048;2022-10-23T09:16:17;3.33;;;2.07;;
6785;SDS011;3430;51.192;6.048;2022-10-23T09:18:44;2.10;;;1.93;;
6785;SDS011;3430;51.192;6.048;2022-10-23T09:21:11;3.10;;;2.43;;
6785;SDS011;3430;51.192;6.048;2022-10-23T09:23:37;1.87;;;1.73;;
6785;SDS011;3430;51.192;6.048;2022-10-23T09:26:05;4.10;;;2.20;;
6785;SDS011;3430;51.192;6.048;2022-10-23T09:28:35;5.70;;;2.33;;
6785;SDS011;3430;51.192;6.048;2022-10-23T09:31:07;2.57;;;2.10;;
6785;SDS011;3430;51.192;6.048;2022-10-23T09:33:32;1.97;;;1.73;;
6785;SDS011;3430;51.192;6.048;2022-10-23T09:41:05;5.03;;;2.20;;
6785;SDS011;3430;51.192;6.048;2022-10-23T09:43:31;4.30;;;2.33;;
6785;SDS011;3430;51.192;6.048;2022-10-23T09:45:58;2.90;;;1.93;;
6785;SDS011;3430;51.192;6.048;2022-10-23T09:48:23;2.27;;;2.07;;
6785;SDS011;3430;51.192;6.048;2022-10-23T09:50:59;7.57;;;2.40;;
6785;SDS011;3430;51.192;6.048;2022-10-23T09:53:27;3.07;;;2.00;;
6785;SDS011;3430;51.192;6.048;2022-10-23T09:55:55;2.20;;;2.00;;
6785;SDS011;3430;51.192;6.048;2022-10-23T09:58:26;2.60;;;2.20;;
6785;SDS011;3430;51.192;6.048;2022-10-23T10:00:53;2.90;;;2.50;;
6785;SDS011;3430;51.192;6.048;2022-10-23T10:03:20;3.10;;;1.70;;
6785;SDS011;3430;51.192;6.048;2022-10-23T10:05:52;5.00;;;2.37;;
6785;SDS011;3430;51.192;6.048;2022-10-23T10:13:34;2.80;;;2.03;;
6785;SDS011;3430;51.192;6.048;2022-10-23T10:31:19;2.13;;;1.77;;
6785;SDS011;3430;51.192;6.048;2022-10-23T10:33:52;2.37;;;1.73;;
6785;SDS011;3430;51.192;6.048;2022-10-23T10:38:59;3.47;;;1.97;;
6785;SDS011;3430;51.192;6.048;2022-10-23T10:41:31;3.17;;;2.23;;
6785;SDS011;3430;51.192;6.048;2022-10-23T10:44:15;3.10;;;1.87;;
6785;SDS011;3430;51.192;6.048;2022-10-23T10:46:53;2.00;;;1.80;;
6785;SDS011;3430;51.192;6.048;2022-10-23T10:57:04;5.40;;;2.17;;
6785;SDS011;3430;51.192;6.048;2022-10-23T10:59:37;2.73;;;1.90;;
6785;SDS011;3430;51.192;6.048;2022-10-23T11:04:44;2.50;;;2.03;;
6785;SDS011;3430;51.192;6.048;2022-10-23T11:07:12;2.67;;;1.90;;
6785;SDS011;3430;51.192;6.048;2022-10-23T11:09:38;2.10;;;1.90;;
6785;SDS011;3430;51.192;6.048;2022-10-23T11:12:04;1.70;;;1.60;;
6785;SDS011;3430;51.192;6.048;2022-10-23T11:14:32;3.10;;;1.80;;
6785;SDS011;3430;51.192;6.048;2022-10-23T11:17:00;1.80;;;1.70;;
6785;SDS011;3430;51.192;6.048;2022-10-23T11:19:39;3.60;;;1.70;;
6785;SDS011;3430;51.192;6.048;2022-10-23T11:22:18;2.03;;;1.80;;
6785;SDS011;3430;51.192;6.048;2022-10-23T11:37:58;3.07;;;1.83;;
6785;SDS011;3430;51.192;6.048;2022-10-23T11:40:25;2.33;;;2.00;;
6785;SDS011;3430;51.192;6.048;2022-10-23T11:42:50;5.10;;;2.23;;
6785;SDS011;3430;51.192;6.048;2022-10-23T11:50:24;1.93;;;1.77;;
6785;SDS011;3430;51.192;6.048;2022-10-23T11:52:54;1.97;;;1.70;;
6785;SDS011;3430;51.192;6.048;2022-10-23T11:55:24;3.87;;;2.30;;
6785;SDS011;3430;51.192;6.048;2022-10-23T12:00:34;1.73;;;1.60;;
6785;SDS011;3430;51.192;6.048;2022-10-23T12:03:02;3.17;;;1.50;;
6785;SDS011;3430;51.192;6.048;2022-10-23T12:05:32;2.00;;;1.80;;
6785;SDS011;3430;51.192;6.048;2022-10-23T12:08:03;2.43;;;1.77;;
6785;SDS011;3430;51.192;6.048;2022-10-23T12:10:33;1.60;;;1.47;;
6785;SDS011;3430;51.192;6.048;2022-10-23T12:13:00;2.27;;;1.50;;
6785;SDS011;3430;51.192;6.048;2022-10-23T12:15:27;1.50;;;1.23;;
6785;SDS011;3430;51.192;6.048;2022-10-23T12:17:53;2.43;;;1.60;;
6785;SDS011;3430;51.192;6.048;2022-10-23T12:20:24;3.53;;;1.60;;
6785;SDS011;3430;51.192;6.048;2022-10-23T12:25:49;1.50;;;1.40;;
6785;SDS011;3430;51.192;6.048;2022-10-23T12:28:28;1.60;;;1.50;;
6785;SDS011;3430;51.192;6.048;2022-10-23T12:33:24;2.47;;;1.27;;
6785;SDS011;3430;51.192;6.048;2022-10-23T12:36:05;1.70;;;1.60;;
6785;SDS011;3430;51.192;6.048;2022-10-23T12:38:32;2.57;;;1.67;;
6785;SDS011;3430;51.192;6.048;2022-10-23T12:41:14;2.57;;;1.57;;
6785;SDS011;3430;51.192;6.048;2022-10-23T12:43:41;3.03;;;1.60;;
6785;SDS011;3430;51.192;6.048;2022-10-23T12:48:46;1.60;;;1.50;;
6785;SDS011;3430;51.192;6.048;2022-10-23T12:51:14;1.53;;;1.37;;
6785;SDS011;3430;51.192;6.048;2022-10-23T12:53:47;1.97;;;1.60;;
6785;SDS011;3430;51.192;6.048;2022-10-23T12:56:12;1.60;;;1.47;;
6785;SDS011;3430;51.192;6.048;2022-10-23T12:58:38;1.50;;;1.40;;
6785;SDS011;3430;51.192;6.048;2022-10-23T13:01:20;2.23;;;1.43;;
6785;SDS011;3430;51.192;6.048;2022-10-23T13:03:46;2.73;;;1.70;;
6785;SDS011;3430;51.192;6.048;2022-10-23T13:06:11;2.03;;;1.50;;
6785;SDS011;3430;51.192;6.048;2022-10-23T13:08:44;2.00;;;1.33;;
6785;SDS011;3430;51.192;6.048;2022-10-23T13:11:12;1.70;;;1.57;;
6785;SDS011;3430;51.192;6.048;2022-10-23T13:13:38;2.40;;;1.47;;
6785;SDS011;3430;51.192;6.048;2022-10-23T13:16:14;4.87;;;2.10;;
6785;SDS011;3430;51.192;6.048;2022-10-23T13:18:40;3.27;;;1.70;;
6785;SDS011;3430;51.192;6.048;2022-10-23T13:21:09;2.13;;;1.67;;
6785;SDS011;3430;51.192;6.048;2022-10-23T13:23:38;2.20;;;1.77;;
6785;SDS011;3430;51.192;6.048;2022-10-23T13:26:06;1.50;;;1.40;;
6785;SDS011;3430;51.192;6.048;2022-10-23T13:28:45;3.53;;;1.70;;
6785;SDS011;3430;51.192;6.048;2022-10-23T13:33:48;4.67;;;1.73;;
6785;SDS011;3430;51.192;6.048;2022-10-23T13:38:42;1.40;;;1.30;;
6785;SDS011;3430;51.192;6.048;2022-10-23T13:41:10;1.70;;;1.60;;
6785;SDS011;3430;51.192;6.048;2022-10-23T13:43:36;6.93;;;1.60;;
6785;SDS011;3430;51.192;6.048;2022-10-23T13:46:01;1.63;;;1.40;;
6785;SDS011;3430;51.192;6.048;2022-10-23T13:48:27;1.67;;;1.57;;
6785;SDS011;3430;51.192;6.048;2022-10-23T13:50:52;2.27;;;1.50;;
6785;SDS011;3430;51.192;6.048;2022-10-23T13:53:18;4.70;;;1.90;;
6785;SDS011;3430;51.192;6.048;2022-10-23T13:55:44;1.97;;;1.77;;
6785;SDS011;3430;51.192;6.048;2022-10-23T13:58:10;3.37;;;1.50;;
6785;SDS011;3430;51.192;6.048;2022-10-23T14:00:35;1.70;;;1.60;;
6785;SDS011;3430;51.192;6.048;2022-10-23T14:03:01;1.83;;;1.43;;
6785;SDS011;3430;51.192;6.048;2022-10-23T14:05:26;2.50;;;1.60;;
6785;SDS011;3430;51.192;6.048;2022-10-23T14:07:51;2.17;;;1.60;;
6785;SDS011;3430;51.192;6.048;2022-10-23T14:10:17;2.23;;;1.67;;
6785;SDS011;3430;51.192;6.048;2022-10-23T14:12:42;1.83;;;1.50;;
6785;SDS011;3430;51.192;6.048;2022-10-23T14:15:08;3.03;;;1.80;;
6785;SDS011;3430;51.192;6.048;2022-10-23T14:17:33;1.60;;;1.50;;
6785;SDS011;3430;51.192;6.048;2022-10-23T14:19:59;1.83;;;1.53;;
6785;SDS011;3430;51.192;6.048;2022-10-23T14:22:24;2.80;;;2.47;;
6785;SDS011;3430;51.192;6.048;2022-10-23T14:24:49;1.60;;;1.50;;
6785;SDS011;3430;51.192;6.048;2022-10-23T14:27:14;1.60;;;1.50;;
6785;SDS011;3430;51.192;6.048;2022-10-23T14:29:40;2.90;;;1.87;;
6785;SDS011;3430;51.192;6.048;2022-10-23T14:32:05;1.63;;;1.53;;
6785;SDS011;3430;51.192;6.048;2022-10-23T14:34:31;1.87;;;1.57;;
6785;SDS011;3430;51.192;6.048;2022-10-23T14:36:56;1.77;;;1.43;;
6785;SDS011;3430;51.192;6.048;2022-10-23T14:39:21;1.77;;;1.40;;
6785;SDS011;3430;51.192;6.048;2022-10-23T14:41:47;3.17;;;1.73;;
6785;SDS011;3430;51.192;6.048;2022-10-23T14:44:12;3.97;;;1.60;;
6785;SDS011;3430;51.192;6.048;2022-10-23T14:46:37;2.10;;;1.60;;
6785;SDS011;3430;51.192;6.048;2022-10-23T14:49:02;2.37;;;1.60;;
6785;SDS011;3430;51.192;6.048;2022-10-23T14:51:28;1.53;;;1.43;;
6785;SDS011;3430;51.192;6.048;2022-10-23T14:54:04;1.80;;;1.60;;
6785;SDS011;3430;51.192;6.048;2022-10-23T14:56:31;5.90;;;1.63;;
6785;SDS011;3430;51.192;6.048;2022-10-23T14:58:56;2.50;;;1.70;;
6785;SDS011;3430;51.192;6.048;2022-10-23T15:01:27;2.00;;;1.80;;
6785;SDS011;3430;51.192;6.048;2022-10-23T15:03:52;2.93;;;1.60;;
6785;SDS011;3430;51.192;6.048;2022-10-23T15:06:19;2.83;;;1.73;;
6785;SDS011;3430;51.192;6.048;2022-10-23T15:08:47;1.60;;;1.50;;
6785;SDS011;3430;51.192;6.048;2022-10-23T15:11:13;2.43;;;1.50;;
6785;SDS011;3430;51.192;6.048;2022-10-23T15:13:38;1.20;;;1.20;;
6785;SDS011;3430;51.192;6.048;2022-10-23T15:16:04;1.87;;;1.53;;
6785;SDS011;3430;51.192;6.048;2022-10-23T15:18:30;5.67;;;1.77;;
6785;SDS011;3430;51.192;6.048;2022-10-23T15:20:55;2.27;;;1.80;;
6785;SDS011;3430;51.192;6.048;2022-10-23T15:23:20;1.90;;;1.70;;
6785;SDS011;3430;51.192;6.048;2022-10-23T15:25:53;3.47;;;1.90;;
6785;SDS011;3430;51.192;6.048;2022-10-23T15:28:18;2.10;;;1.70;;
6785;SDS011;3430;51.192;6.048;2022-10-23T15:30:43;1.90;;;1.70;;
6785;SDS011;3430;51.192;6.048;2022-10-23T15:33:09;3.17;;;1.73;;
6785;SDS011;3430;51.192;6.048;2022-10-23T15:35:35;1.70;;;1.60;;
6785;SDS011;3430;51.192;6.048;2022-10-23T15:38:00;3.10;;;2.00;;
6785;SDS011;3430;51.192;6.048;2022-10-23T15:40:25;3.13;;;1.70;;
6785;SDS011;3430;51.192;6.048;2022-10-23T15:42:51;2.37;;;1.57;;
6785;SDS011;3430;51.192;6.048;2022-10-23T15:45:16;5.33;;;1.67;;
6785;SDS011;3430;51.192;6.048;2022-10-23T15:47:42;2.07;;;1.70;;
6785;SDS011;3430;51.192;6.048;2022-10-23T15:50:07;3.63;;;1.67;;
6785;SDS011;3430;51.192;6.048;2022-10-23T15:52:32;9.60;;;1.90;;
6785;SDS011;3430;51.192;6.048;2022-10-23T15:54:58;2.33;;;1.63;;
6785;SDS011;3430;51.192;6.048;2022-10-23T15:57:23;2.70;;;1.60;;
6785;SDS011;3430;51.192;6.048;2022-10-23T15:59:48;2.17;;;1.50;;
6785;SDS011;3430;51.192;6.048;2022-10-23T16:02:15;2.10;;;1.90;;
6785;SDS011;3430;51.192;6.048;2022-10-23T16:04:40;1.80;;;1.60;;
6785;SDS011;3430;51.192;6.048;2022-10-23T16:07:08;4.20;;;1.97;;
6785;SDS011;3430;51.192;6.048;2022-10-23T16:09:34;2.70;;;1.83;;
6785;SDS011;3430;51.192;6.048;2022-10-23T16:11:59;1.97;;;1.70;;
6785;SDS011;3430;51.192;6.048;2022-10-23T16:14:24;1.63;;;1.53;;
6785;SDS011;3430;51.192;6.048;2022-10-23T16:16:50;2.50;;;1.80;;
6785;SDS011;3430;51.192;6.048;2022-10-23T16:19:15;2.20;;;1.83;;
6785;SDS011;3430;51.192;6.048;2022-10-23T16:21:40;1.90;;;1.57;;
6785;SDS011;3430;51.192;6.048;2022-10-23T16:24:06;1.93;;;1.57;;
6785;SDS011;3430;51.192;6.048;2022-10-23T16:26:31;4.10;;;1.67;;
6785;SDS011;3430;51.192;6.048;2022-10-23T16:29:01;2.20;;;1.80;;
6785;SDS011;3430;51.192;6.048;2022-10-23T16:31:27;3.27;;;1.90;;
6785;SDS011;3430;51.192;6.048;2022-10-23T16:33:53;4.40;;;1.70;;
6785;SDS011;3430;51.192;6.048;2022-10-23T16:36:20;2.73;;;2.13;;
6785;SDS011;3430;51.192;6.048;2022-10-23T16:38:46;2.53;;;1.90;;
6785;SDS011;3430;51.192;6.048;2022-10-23T16:41:11;2.20;;;1.83;;
6785;SDS011;3430;51.192;6.048;2022-10-23T16:43:36;2.87;;;2.00;;
6785;SDS011;3430;51.192;6.048;2022-10-23T16:46:03;3.10;;;1.70;;
6785;SDS011;3430;51.192;6.048;2022-10-23T16:48:28;2.13;;;1.90;;
6785;SDS011;3430;51.192;6.048;2022-10-23T16:50:54;1.90;;;1.70;;
6785;SDS011;3430;51.192;6.048;2022-10-23T16:53:19;4.57;;;2.00;;
6785;SDS011;3430;51.192;6.048;2022-10-23T16:55:44;1.90;;;1.70;;